Terminal Aerodrome Forecast
Issued by NWS

Home | Current Version | Previous Version | Text Only | Print | Product List | Glossary On
Versions: 1 2 3 4 5 6 7 8 9 10 11 12 13
000
FTUS46 KMTR 051120
TAFSTS
TAF
KSTS 051120Z 0512/0612 VRB03KT P6SM OVC008
     FM051700 19005KT P6SM SCT010
     FM051900 18010KT P6SM SKC
     FM060400 15005KT P6SM FEW250
     FM061000 VRB03KT P6SM BKN010=

USA.gov is the U.S. government's official web portal to all federal, state and local government web resources and services.